Terminal Aerodrome Forecast
Issued by NWS

Current Version | Previous Version | Graphics & Text | Print | Product List | Glossary On
Versions: 1 2 3 4 5 6 7 8 9 10 11 12 13 14 15 16 17 18 19 20 21
000
FTUS41 KPBZ 300520
TAFMGW
TAF
KMGW 300520Z 3006/0106 15005KT P6SM BKN150
     FM301000 13005KT 5SM -SHRA BR OVC035
     FM301200 15005KT 3SM -SHRA BR OVC025 WS020/21040KT
     FM301600 19008KT 3SM -SHRA BR OVC015
     FM302100 22008KT P6SM -SHRA OVC025
     FM010300 26010KT P6SM BKN025=

USA.gov is the U.S. government's official web portal to all federal, state and local government web resources and services.